createdAt,value
2022-12-01T07:57:45.505Z,38.77
2022-12-01T08:00:14.925Z,38.57
2022-12-01T08:02:45.421Z,37.47
2022-12-01T08:05:13.540Z,36.43
2022-12-01T08:07:41.770Z,37.13
2022-12-01T08:10:10.418Z,35.03
2022-12-01T08:12:38.458Z,34.40
2022-12-01T08:15:08.922Z,34.87
2022-12-01T08:17:38.498Z,34.47
2022-12-01T08:20:08.117Z,35.87
2022-12-01T08:22:36.262Z,34.77
2022-12-01T08:25:04.621Z,34.63
2022-12-01T08:27:32.649Z,33.33
2022-12-01T08:30:00.692Z,32.10
2022-12-01T08:32:30.669Z,31.53
2022-12-01T08:35:01.664Z,33.00
2022-12-01T08:37:29.742Z,33.07
2022-12-01T08:39:57.826Z,33.07
2022-12-01T08:42:25.994Z,32.83
2022-12-01T08:44:54.094Z,33.43
2022-12-01T08:47:22.178Z,34.27
2022-12-01T08:49:52.088Z,33.27
2022-12-01T08:52:20.232Z,32.93
2022-12-01T08:54:48.265Z,33.33
2022-12-01T08:57:16.458Z,34.47
2022-12-01T08:59:45.124Z,31.70
2022-12-01T09:02:16.684Z,33.50
2022-12-01T09:04:44.972Z,30.80
2022-12-01T09:07:15.111Z,32.97
2022-12-01T09:09:43.785Z,33.97
2022-12-01T09:12:12.546Z,34.07
2022-12-01T09:14:42.507Z,35.90
2022-12-01T09:17:10.850Z,35.17
2022-12-01T09:19:38.840Z,36.47
2022-12-01T09:22:07.050Z,35.07
2022-12-01T09:24:38.823Z,31.60
2022-12-01T09:27:07.280Z,32.70
2022-12-01T09:29:35.391Z,32.93
2022-12-01T09:32:03.495Z,33.90
2022-12-01T09:34:31.542Z,35.13
2022-12-01T09:36:59.719Z,34.67
2022-12-01T09:39:27.839Z,33.13
2022-12-01T09:41:59.975Z,34.17
2022-12-01T09:44:36.486Z,31.83
2022-12-01T09:47:12.602Z,32.33
2022-12-01T09:49:51.724Z,32.27
2022-12-01T09:52:21.007Z,31.20
2022-12-01T09:54:49.828Z,33.77
2022-12-01T09:57:29.482Z,34.60
2022-12-01T10:00:00.786Z,37.23
2022-12-01T10:02:35.003Z,34.93
2022-12-01T10:05:06.032Z,33.80
2022-12-01T10:07:39.001Z,32.97
2022-12-01T10:10:12.429Z,32.63
2022-12-01T10:12:44.845Z,33.57
2022-12-01T10:15:26.055Z,35.57
2022-12-01T10:18:04.655Z,35.60
2022-12-01T10:20:41.487Z,36.83
2022-12-01T10:23:25.934Z,36.37
2022-12-01T10:25:59.600Z,33.30
2022-12-01T10:29:01.252Z,34.63
2022-12-01T10:31:42.739Z,31.73
2022-12-01T10:34:15.560Z,33.40
2022-12-01T10:36:43.675Z,31.70
2022-12-01T10:39:19.926Z,31.97
2022-12-01T10:41:50.039Z,30.30
2022-12-01T10:44:20.880Z,29.43
2022-12-01T10:46:53.388Z,29.67
2022-12-01T10:49:22.268Z,30.23
2022-12-01T10:51:57.961Z,28.63
2022-12-01T10:54:34.494Z,26.90
2022-12-01T10:57:03.533Z,27.83
2022-12-01T10:59:37.227Z,27.90
2022-12-01T11:02:15.519Z,27.93
2022-12-01T11:04:47.117Z,27.20
2022-12-01T11:07:22.128Z,27.30
2022-12-01T11:10:15.356Z,27.20
2022-12-01T11:12:44.642Z,26.63
2022-12-01T11:15:23.553Z,27.17
2022-12-01T11:17:59.324Z,26.97
2022-12-01T11:20:31.446Z,25.60
2022-12-01T11:23:26.959Z,27.67
2022-12-01T11:26:04.927Z,26.47
2022-12-01T11:28:34.393Z,26.50
2022-12-01T11:31:05.819Z,25.33
2022-12-01T11:33:40.845Z,24.63
2022-12-01T11:36:15.940Z,25.77
2022-12-01T11:38:46.036Z,25.40
2022-12-01T11:41:28.481Z,25.00
2022-12-01T11:44:01.925Z,25.90
2022-12-01T11:46:35.610Z,25.47
2022-12-01T11:49:04.448Z,26.27
2022-12-01T11:51:37.670Z,26.17
2022-12-01T11:54:13.705Z,26.67
2022-12-01T11:56:43.051Z,26.20
2022-12-01T11:59:14.871Z,28.87
2022-12-01T12:02:07.062Z,29.60
2022-12-01T12:04:51.951Z,30.87
2022-12-01T12:07:29.179Z,30.33
2022-12-01T12:10:14.120Z,28.90
2022-12-01T12:12:57.871Z,28.63
2022-12-01T12:15:34.874Z,28.30
2022-12-01T12:18:19.634Z,26.30
2022-12-01T12:20:59.201Z,26.73
2022-12-01T12:23:47.312Z,27.17
2022-12-01T12:26:21.923Z,29.20
2022-12-01T12:29:18.264Z,27.20
2022-12-01T12:31:56.347Z,27.90
2022-12-01T12:34:42.081Z,27.43
2022-12-01T12:37:21.105Z,26.77
2022-12-01T12:40:18.785Z,26.20
2022-12-01T12:43:00.112Z,26.73
2022-12-01T12:45:37.129Z,26.17
2022-12-01T12:48:19.622Z,27.03
2022-12-01T12:50:59.229Z,26.77
2022-12-01T12:53:36.148Z,27.37
2022-12-01T12:56:09.725Z,26.50
2022-12-01T12:58:40.694Z,25.57
2022-12-01T13:01:15.001Z,24.30
2022-12-01T13:03:49.990Z,25.60
2022-12-01T13:06:26.246Z,25.00
2022-12-01T13:08:58.401Z,24.10
2022-12-01T13:11:31.966Z,24.53
2022-12-01T13:14:04.979Z,25.47
2022-12-01T13:16:36.257Z,24.30
2022-12-01T13:19:12.244Z,25.17
2022-12-01T13:21:44.534Z,24.30
2022-12-01T13:24:23.294Z,23.57
2022-12-01T13:26:55.650Z,23.47
2022-12-01T13:29:25.887Z,22.87
2022-12-01T13:31:55.783Z,22.17
2022-12-01T13:34:27.487Z,21.90
2022-12-01T13:36:57.296Z,22.93
2022-12-01T13:39:29.307Z,21.00
2022-12-01T13:42:03.489Z,24.70
2022-12-01T13:44:35.153Z,25.00
2022-12-01T13:47:30.036Z,25.17
2022-12-01T13:49:58.390Z,23.20
2022-12-01T13:52:33.702Z,24.67
2022-12-01T13:55:21.288Z,24.87
2022-12-01T13:57:51.183Z,24.10
2022-12-01T14:00:27.083Z,23.43
2022-12-01T14:03:34.169Z,23.93
2022-12-01T14:06:09.944Z,23.70
2022-12-01T14:08:47.907Z,23.43
2022-12-01T14:11:22.422Z,22.80
2022-12-01T14:13:54.875Z,23.03
2022-12-01T14:16:23.746Z,22.37
2022-12-01T14:18:55.821Z,22.90
2022-12-01T14:21:43.496Z,24.00
2022-12-01T14:24:24.189Z,22.00
2022-12-01T14:26:53.629Z,23.07
2022-12-01T14:29:33.101Z,21.47
2022-12-01T14:32:22.332Z,23.17
2022-12-01T14:35:00.600Z,23.17
2022-12-01T14:37:37.905Z,24.23
2022-12-01T14:40:14.298Z,22.97
2022-12-01T14:43:02.835Z,22.73
2022-12-01T14:45:35.812Z,21.97
2022-12-01T14:48:05.934Z,22.70
2022-12-01T14:50:45.075Z,22.17
2022-12-01T14:53:22.291Z,20.90
2022-12-01T14:55:56.299Z,21.50
2022-12-01T14:58:27.892Z,23.23
2022-12-01T15:01:06.804Z,24.47
2022-12-01T15:03:39.495Z,23.97
2022-12-01T15:06:08.481Z,22.87
2022-12-01T15:08:45.784Z,24.17
2022-12-01T15:11:26.492Z,25.00
2022-12-01T15:13:55.639Z,26.30
